Time;durP1;ratioP1;P1;durP2;ratioP2;P2;SDS_P1;SDS_P2;PMS_P1;PMS_P2;Temp;Humidity;BMP_temperature;BMP_pressure;BME280_temperature;BME280_humidity;BME280_pressure;Samples;Min_cycle;Max_cycle;Signal;HPM_P1;HPM_P2
2023/09/14 00:00:17;;;;;;;5.50;3.00;;;;;;;15.14;67.36;101633.97;677529;29;1256;-95
2023/09/14 00:00:42;;;;;;;7.00;2.90;;;;;;;15.15;67.25;101649.81;680054;29;1208;-95
2023/09/14 00:01:03;;;;;;;6.60;2.80;;;;;;;15.14;67.22;101649.75;677657;29;1274;-96
2023/09/14 00:01:24;;;;;;;6.22;2.90;;;;;;;15.13;67.37;101642.72;680287;29;1332;-95
2023/09/14 00:01:45;;;;;;;4.40;2.70;;;;;;;15.11;67.36;101641.81;674939;29;1352;-95
2023/09/14 00:02:05;;;;;;;8.20;2.80;;;;;;;15.07;67.52;101639.09;680358;29;1228;-96
2023/09/14 00:02:26;;;;;;;8.45;2.97;;;;;;;15.10;67.57;101640.03;680575;29;1288;-96
2023/09/14 00:02:48;;;;;;;8.77;3.03;;;;;;;15.10;67.50;101637.41;677651;29;1276;-96
2023/09/14 00:03:09;;;;;;;4.97;3.10;;;;;;;15.09;67.47;101641.78;677758;29;1206;-96
2023/09/14 00:03:30;;;;;;;6.28;3.15;;;;;;;15.08;67.68;101646.13;675118;29;1174;-96
2023/09/14 00:03:52;;;;;;;5.90;3.10;;;;;;;15.07;67.38;101639.09;675149;29;1151;-95
2023/09/14 00:04:12;;;;;;;7.35;2.92;;;;;;;15.10;67.37;101637.41;675064;29;1223;-95
2023/09/14 00:04:33;;;;;;;7.07;3.08;;;;;;;15.07;67.62;101640.84;677679;29;1417;-96
2023/09/14 00:04:54;;;;;;;7.50;3.35;;;;;;;15.06;67.57;101637.31;674865;29;1212;-95
2023/09/14 00:05:15;;;;;;;6.00;3.55;;;;;;;15.06;67.61;101639.94;680371;29;1144;-95
2023/09/14 00:05:43;;;;;;;5.40;3.45;;;;;;;15.05;67.55;101632.03;682379;29;1268;-94
2023/09/14 00:06:04;;;;;;;6.20;3.65;;;;;;;15.06;67.72;101637.31;677678;29;1308;-95
2023/09/14 00:06:25;;;;;;;6.18;3.63;;;;;;;15.06;67.64;101631.19;672221;29;1341;-95
2023/09/14 00:06:46;;;;;;;6.67;3.53;;;;;;;15.06;67.62;101631.19;677608;29;1229;-95
2023/09/14 00:07:07;;;;;;;6.10;3.25;;;;;;;15.07;67.70;101639.09;677536;29;1225;-95
2023/09/14 00:07:27;;;;;;;6.70;3.22;;;;;;;15.05;67.67;101638.19;680297;29;1330;-95
2023/09/14 00:07:48;;;;;;;7.20;3.57;;;;;;;15.05;67.66;101635.56;677386;29;1322;-95
2023/09/14 00:08:10;;;;;;;7.97;3.50;;;;;;;15.06;67.56;101639.94;677565;29;1183;-94
2023/09/14 00:08:31;;;;;;;6.97;3.58;;;;;;;15.04;67.72;101633.78;675067;29;1249;-94
2023/09/14 00:08:52;;;;;;;6.95;3.47;;;;;;;15.06;67.90;101642.59;675272;29;1272;-95
2023/09/14 00:09:13;;;;;;;5.32;3.17;;;;;;;15.03;67.71;101631.09;679952;29;1432;-95
2023/09/14 00:09:34;;;;;;;5.30;3.05;;;;;;;14.99;67.66;101626.66;679839;29;1541;-96
2023/09/14 00:09:55;;;;;;;4.72;2.90;;;;;;;15.04;67.74;101639.03;675865;29;1167;-95
2023/09/14 00:10:15;;;;;;;5.00;3.10;;;;;;;15.04;67.75;101641.66;677659;29;1155;-96
2023/09/14 00:10:36;;;;;;;7.60;3.38;;;;;;;15.01;67.70;101638.06;682792;28;1175;-94
2023/09/14 00:11:00;;;;;;;7.88;3.63;;;;;;;15.02;67.84;101635.50;680350;29;1898;-95
2023/09/14 00:11:20;;;;;;;9.45;4.03;;;;;;;14.95;67.88;101628.31;677674;29;1313;-94
2023/09/14 00:11:41;;;;;;;7.53;3.92;;;;;;;15.00;67.87;101637.16;682640;28;1263;-95
2023/09/14 00:12:03;;;;;;;7.03;3.70;;;;;;;14.97;67.92;101631.84;677642;29;1196;-95
2023/09/14 00:12:24;;;;;;;5.97;3.45;;;;;;;15.00;67.81;101639.78;680370;29;1242;-96
2023/09/14 00:12:44;;;;;;;5.63;3.30;;;;;;;14.98;67.79;101635.38;676911;29;1270;-95
2023/09/14 00:13:07;;;;;;;5.30;3.10;;;;;;;14.94;67.90;101631.78;672376;29;1291;-94
2023/09/14 00:13:27;;;;;;;8.00;3.50;;;;;;;14.91;67.97;101626.44;677536;29;1305;-93
2023/09/14 00:13:48;;;;;;;8.48;3.60;;;;;;;14.96;67.89;101640.59;674974;29;1244;-94
2023/09/14 00:14:09;;;;;;;10.15;3.70;;;;;;;14.94;67.68;101631.78;677419;29;1281;-93
2023/09/14 00:14:30;;;;;;;8.82;3.72;;;;;;;14.94;68.03;101634.44;674915;29;1384;-94
2023/09/14 00:14:50;;;;;;;9.43;4.18;;;;;;;14.94;68.01;101637.06;677630;29;1479;-94
2023/09/14 00:15:11;;;;;;;6.80;3.90;;;;;;;14.94;68.02;101634.44;674754;29;1206;-94
2023/09/14 00:15:33;;;;;;;5.10;3.60;;;;;;;14.95;68.10;101644.06;672552;29;1202;-94
2023/09/14 00:15:54;;;;;;;3.75;2.97;;;;;;;14.92;67.91;101634.38;675013;29;1398;-95
2023/09/14 00:16:14;;;;;;;9.57;3.45;;;;;;;14.93;68.09;101637.88;674275;29;1257;-94
2023/09/14 00:16:35;;;;;;;9.98;3.60;;;;;;;14.95;67.93;101638.81;677289;29;1201;-94
2023/09/14 00:16:56;;;;;;;11.93;4.00;;;;;;;14.93;68.01;101645.75;674779;29;1226;-94
2023/09/14 00:17:16;;;;;;;6.50;3.40;;;;;;;14.91;67.81;101635.22;677600;29;1198;-95
2023/09/14 00:17:37;;;;;;;6.45;3.42;;;;;;;14.92;67.91;101636.09;676908;29;1432;-95
2023/09/14 00:17:58;;;;;;;5.37;3.20;;;;;;;14.92;68.05;101642.25;679016;29;1150;-94
2023/09/14 00:18:20;;;;;;;7.10;3.40;;;;;;;14.91;68.25;101635.22;674658;29;1243;-94
2023/09/14 00:18:41;;;;;;;7.43;3.40;;;;;;;14.84;67.99;101616.63;674345;29;1409;-94
2023/09/14 00:19:02;;;;;;;7.13;3.50;;;;;;;14.90;68.03;101629.94;677906;29;1194;-94
2023/09/14 00:19:25;;;;;;;8.52;3.75;;;;;;;14.87;68.10;101632.50;677609;29;1268;-94
2023/09/14 00:19:46;;;;;;;8.02;3.50;;;;;;;14.90;68.20;101629.94;677788;29;1308;-94
2023/09/14 00:20:09;;;;;;;9.20;3.40;;;;;;;14.88;68.10;101626.38;677296;29;1357;-94
2023/09/14 00:20:30;;;;;;;9.18;3.33;;;;;;;14.93;68.11;101643.13;677620;29;1251;-94
2023/09/14 00:20:53;;;;;;;10.27;3.55;;;;;;;14.87;68.13;101627.25;674683;29;1232;-94
2023/09/14 00:21:13;;;;;;;7.75;3.40;;;;;;;14.88;68.10;101626.38;674758;29;1380;-94
2023/09/14 00:21:34;;;;;;;7.40;3.55;;;;;;;14.87;68.16;101640.38;679852;29;1230;-94
2023/09/14 00:21:55;;;;;;;6.70;3.30;;;;;;;14.87;68.14;101635.13;682217;29;1135;-94
2023/09/14 00:22:15;;;;;;;7.90;3.47;;;;;;;14.78;68.15;101626.16;677446;29;1321;-94
2023/09/14 00:22:36;;;;;;;6.00;3.40;;;;;;;14.84;68.26;101630.69;677038;29;1178;-94
2023/09/14 00:22:58;;;;;;;6.85;3.60;;;;;;;14.88;68.28;101639.53;677173;29;1267;-96
2023/09/14 00:23:20;;;;;;;6.43;3.50;;;;;;;14.85;68.14;101631.56;679997;29;1237;-95
2023/09/14 00:23:41;;;;;;;7.10;3.53;;;;;;;14.86;68.37;101633.34;680112;29;1354;-94
2023/09/14 00:24:02;;;;;;;5.97;3.40;;;;;;;14.83;68.28;101638.50;674922;29;1183;-94
2023/09/14 00:24:23;;;;;;;6.20;3.65;;;;;;;14.86;68.40;101634.22;672226;29;1250;-94
2023/09/14 00:24:44;;;;;;;6.53;3.80;;;;;;;14.79;68.28;101621.78;677438;29;1326;-94
2023/09/14 00:25:05;;;;;;;6.80;3.65;;;;;;;14.78;68.20;101627.91;682491;29;1199;-94
2023/09/14 00:25:26;;;;;;;6.55;3.55;;;;;;;14.84;68.57;101635.03;674795;29;1211;-93
2023/09/14 00:25:47;;;;;;;6.00;3.30;;;;;;;14.73;68.30;101621.63;671967;29;1320;-94
2023/09/14 00:26:10;;;;;;;6.43;3.50;;;;;;;14.80;68.56;101632.34;679891;29;1311;-94
2023/09/14 00:26:33;;;;;;;6.43;3.40;;;;;;;14.78;68.26;101633.16;679621;29;1398;-93
2023/09/14 00:26:54;;;;;;;5.10;3.33;;;;;;;14.79;68.41;101627.03;676805;29;1394;-94
2023/09/14 00:27:15;;;;;;;5.38;3.50;;;;;;;14.76;68.42;101632.22;675015;29;1217;-94
2023/09/14 00:27:36;;;;;;;6.13;3.63;;;;;;;14.74;68.41;101621.69;682250;29;1147;-94
2023/09/14 00:27:59;;;;;;;5.93;3.20;;;;;;;14.78;68.32;101635.78;682930;29;1380;-93
2023/09/14 00:28:20;;;;;;;8.13;3.60;;;;;;;14.75;68.39;101630.47;679444;29;1421;-94
2023/09/14 00:28:41;;;;;;;6.97;3.40;;;;;;;14.73;68.51;101627.78;676613;29;1179;-94
2023/09/14 00:29:02;;;;;;;7.75;3.50;;;;;;;14.71;68.39;101629.50;674231;29;1279;-94
2023/09/14 00:29:23;;;;;;;6.20;3.00;;;;;;;14.70;68.38;101632.97;680141;29;1276;-94
2023/09/14 00:29:46;;;;;;;6.40;3.08;;;;;;;14.63;68.42;101613.53;676988;29;1154;-94
2023/09/14 00:30:07;;;;;;;5.72;2.95;;;;;;;14.73;68.57;101633.03;674699;29;1226;-93
2023/09/14 00:30:28;;;;;;;6.95;3.38;;;;;;;14.68;68.55;101628.53;676558;29;1333;-93
2023/09/14 00:30:53;;;;;;;6.93;3.30;;;;;;;14.66;68.40;101628.47;679662;29;1915;-94
2023/09/14 00:31:13;;;;;;;6.13;3.20;;;;;;;14.64;68.52;101624.94;679930;29;1253;-94
2023/09/14 00:31:38;;;;;;;5.53;3.10;;;;;;;14.62;68.57;101624.03;674441;29;1188;-94
2023/09/14 00:31:58;;;;;;;6.78;3.50;;;;;;;14.61;68.30;101622.22;677925;29;1388;-94
2023/09/14 00:32:19;;;;;;;7.13;3.60;;;;;;;14.62;68.45;101629.28;677372;29;1198;-94
2023/09/14 00:32:40;;;;;;;7.60;3.42;;;;;;;14.59;68.37;101619.56;680982;29;1384;-93
2023/09/14 00:33:01;;;;;;;7.70;3.20;;;;;;;14.61;68.38;101630.09;674393;29;1246;-94
2023/09/14 00:33:23;;;;;;;7.28;3.17;;;;;;;14.61;68.35;101627.47;674960;29;1176;-94
2023/09/14 00:33:43;;;;;;;6.78;3.42;;;;;;;14.60;68.38;101626.59;677302;29;1268;-94
2023/09/14 00:34:04;;;;;;;5.72;3.33;;;;;;;14.56;68.40;101623.88;682620;29;1310;-94
2023/09/14 00:34:25;;;;;;;5.77;3.20;;;;;;;14.57;68.49;101634.38;679853;29;1204;-95
2023/09/14 00:34:45;;;;;;;6.95;3.13;;;;;;;14.56;68.40;101629.13;677180;29;1198;-94
2023/09/14 00:35:07;;;;;;;8.10;3.33;;;;;;;14.56;68.38;101631.75;672159;29;1265;-95
2023/09/14 00:35:28;;;;;;;7.68;3.17;;;;;;;14.52;68.48;101621.13;672338;29;1387;-94
2023/09/14 00:35:49;;;;;;;10.02;3.10;;;;;;;14.55;68.64;101632.59;677355;29;1158;-94
2023/09/14 00:36:10;;;;;;;9.88;3.30;;;;;;;14.52;68.50;101623.75;679788;29;1305;-94
2023/09/14 00:36:30;;;;;;;9.43;3.40;;;;;;;14.55;68.63;101627.34;677274;29;1130;-94
2023/09/14 00:36:51;;;;;;;6.80;3.45;;;;;;;14.49;68.51;101623.69;676281;29;1184;-94
2023/09/14 00:37:12;;;;;;;7.38;3.63;;;;;;;14.50;68.49;101630.72;682347;29;1302;-93
2023/09/14 00:37:33;;;;;;;9.77;3.80;;;;;;;14.48;68.58;101632.44;674520;29;1232;-94
2023/09/14 00:37:54;;;;;;;8.90;3.83;;;;;;;14.50;68.59;101633.34;674977;29;1393;-94
2023/09/14 00:38:14;;;;;;;7.13;3.33;;;;;;;14.48;68.55;101621.94;685150;28;1256;-94
2023/09/14 00:38:35;;;;;;;4.50;3.10;;;;;;;14.48;68.59;101621.03;682341;29;1223;-94
2023/09/14 00:38:56;;;;;;;4.80;3.30;;;;;;;14.49;68.67;101623.69;680202;29;1244;-94
2023/09/14 00:39:16;;;;;;;6.93;3.90;;;;;;;14.47;68.59;101628.03;674814;29;1376;-94
2023/09/14 00:39:37;;;;;;;7.90;4.20;;;;;;;14.46;68.85;101628.88;674687;29;1326;-94
2023/09/14 00:39:58;;;;;;;7.70;4.05;;;;;;;14.48;68.54;101636.78;680018;29;1286;-93
2023/09/14 00:40:19;;;;;;;7.45;3.72;;;;;;;14.42;68.94;101616.50;677204;29;1369;-94
2023/09/14 00:40:40;;;;;;;9.60;4.10;;;;;;;14.47;68.77;101625.41;679716;29;1210;-94
2023/09/14 00:41:00;;;;;;;11.10;4.30;;;;;;;14.52;68.55;101634.28;680105;29;1232;-95
2023/09/14 00:41:21;;;;;;;9.70;4.15;;;;;;;14.45;68.66;101628.84;680050;29;1229;-95
2023/09/14 00:41:42;;;;;;;8.33;3.80;;;;;;;14.46;68.55;101622.72;679722;29;1147;-95
2023/09/14 00:42:03;;;;;;;8.60;3.90;;;;;;;14.49;68.63;101634.19;677234;29;1264;-95
2023/09/14 00:42:23;;;;;;;8.93;4.10;;;;;;;14.43;68.69;101627.91;677350;29;1150;-94
2023/09/14 00:42:48;;;;;;;8.63;4.10;;;;;;;14.42;68.51;101627.00;674598;29;1217;-95
2023/09/14 00:43:09;;;;;;;7.78;3.50;;;;;;;14.46;68.67;101638.50;677452;29;1383;-95
2023/09/14 00:43:30;;;;;;;7.97;3.57;;;;;;;14.41;68.69;101622.63;677540;29;1206;-94
2023/09/14 00:43:50;;;;;;;7.40;3.22;;;;;;;14.40;68.67;101626.09;674829;29;1157;-95
2023/09/14 00:44:11;;;;;;;5.38;3.15;;;;;;;14.43;68.58;101627.91;677361;29;1270;-94
2023/09/14 00:44:32;;;;;;;5.72;3.10;;;;;;;14.45;68.56;101637.59;677427;29;1267;-95
2023/09/14 00:44:53;;;;;;;7.13;3.58;;;;;;;14.44;68.55;101634.94;680627;29;1189;-94
2023/09/14 00:45:16;;;;;;;8.30;3.67;;;;;;;14.35;68.74;101619.81;672471;29;1239;-95
2023/09/14 00:45:37;;;;;;;6.90;3.45;;;;;;;14.41;68.78;101626.97;674703;29;1448;-96
2023/09/14 00:45:58;;;;;;;8.48;3.80;;;;;;;14.42;68.75;101637.50;677628;29;1453;-95
2023/09/14 00:46:19;;;;;;;7.30;3.50;;;;;;;14.38;68.74;101630.44;679979;29;1305;-95
2023/09/14 00:46:39;;;;;;;7.27;3.83;;;;;;;14.42;68.90;101640.16;674782;29;1195;-95
2023/09/14 00:47:00;;;;;;;4.90;3.47;;;;;;;14.39;68.83;101635.69;674776;29;1203;-95
2023/09/14 00:47:21;;;;;;;6.18;3.80;;;;;;;14.37;68.86;101626.00;677296;29;1806;-95
2023/09/14 00:47:58;;;;;;;6.60;3.45;;;;;;;14.37;68.71;101628.63;674200;29;1160;-95
2023/09/14 00:48:19;;;;;;;6.72;3.25;;;;;;;14.39;68.79;101638.31;674364;29;1300;-96
2023/09/14 00:48:40;;;;;;;5.95;3.53;;;;;;;14.38;68.90;101633.91;678999;29;1453;-95
2023/09/14 00:49:01;;;;;;;5.93;3.67;;;;;;;14.43;68.51;101643.66;677474;29;1186;-95
2023/09/14 00:49:22;;;;;;;7.35;4.03;;;;;;;14.33;68.90;101621.53;672493;29;1146;-95
2023/09/14 00:49:43;;;;;;;7.25;4.00;;;;;;;14.38;68.78;101630.44;674938;29;1203;-94
2023/09/14 00:50:05;;;;;;;6.95;3.95;;;;;;;14.41;68.82;101641.00;676906;29;1195;-95
2023/09/14 00:50:27;;;;;;;7.88;3.80;;;;;;;14.37;68.74;101637.41;680268;29;1277;-94
2023/09/14 00:50:49;;;;;;;7.90;3.90;;;;;;;14.36;68.86;101632.09;675638;29;1918;-95
2023/09/14 00:51:10;;;;;;;8.43;3.80;;;;;;;14.37;68.70;101631.25;680069;29;1246;-94
2023/09/14 00:51:31;;;;;;;7.93;3.85;;;;;;;14.35;68.92;101630.31;675218;29;1249;-95
2023/09/14 00:51:53;;;;;;;10.73;4.05;;;;;;;14.37;68.96;101636.50;677753;29;1506;-95
2023/09/14 00:52:14;;;;;;;9.82;4.30;;;;;;;14.36;69.01;101637.34;677538;29;1338;-95
2023/09/14 00:52:37;;;;;;;8.07;4.13;;;;;;;14.35;68.75;101625.06;676810;29;1388;-95
2023/09/14 00:53:00;;;;;;;10.10;4.35;;;;;;;14.39;68.87;101642.72;677657;29;1232;-95
2023/09/14 00:53:20;;;;;;;11.70;4.30;;;;;;;14.33;69.05;101638.16;677512;29;1336;-95
2023/09/14 00:53:42;;;;;;;12.05;4.32;;;;;;;14.27;69.12;101618.72;677218;29;1410;-94
2023/09/14 00:54:04;;;;;;;7.53;3.70;;;;;;;14.29;69.13;101623.19;682374;29;1212;-95
2023/09/14 00:54:25;;;;;;;8.40;3.90;;;;;;;14.35;69.07;101635.56;679918;29;1420;-94
2023/09/14 00:54:46;;;;;;;8.13;3.83;;;;;;;14.34;68.77;101631.19;674212;29;1714;-95
2023/09/14 00:55:08;;;;;;;7.20;4.07;;;;;;;14.28;68.79;101620.50;677318;29;1241;-95
2023/09/14 00:55:30;;;;;;;6.10;3.80;;;;;;;14.31;68.82;101628.50;675065;29;1206;-94
2023/09/14 00:55:51;;;;;;;5.20;3.55;;;;;;;14.31;69.15;101631.97;672358;29;1060;-94
2023/09/14 00:56:12;;;;;;;4.65;3.40;;;;;;;14.29;68.81;101636.31;674583;29;1242;-94
2023/09/14 00:56:34;;;;;;;5.18;3.65;;;;;;;14.30;69.09;101632.84;671176;29;1242;-94
2023/09/14 00:56:55;;;;;;;6.70;4.10;;;;;;;14.33;69.18;101637.28;673963;29;1269;-94
2023/09/14 00:57:17;;;;;;;7.15;4.20;;;;;;;14.30;68.88;101639.81;671982;29;1247;-94
2023/09/14 00:57:38;;;;;;;11.50;3.88;;;;;;;14.35;69.05;101640.84;674445;29;1358;-94
2023/09/14 00:58:00;;;;;;;10.50;3.50;;;;;;;14.28;69.16;101633.63;677429;29;1260;-93
2023/09/14 00:58:20;;;;;;;10.20;3.58;;;;;;;14.30;69.06;101637.19;680362;29;1290;-94
2023/09/14 00:58:41;;;;;;;7.22;3.75;;;;;;;14.22;68.93;101627.41;679756;29;1205;-94
2023/09/14 00:59:04;;;;;;;7.30;3.50;;;;;;;14.25;69.21;101626.56;677261;29;1313;-93
2023/09/14 00:59:26;;;;;;;6.85;3.53;;;;;;;14.25;69.01;101627.47;677968;29;1222;-94
2023/09/14 00:59:46;;;;;;;7.15;3.85;;;;;;;14.24;69.29;101632.66;674487;29;1229;-94
2023/09/14 01:00:11;;;;;;;6.28;3.90;;;;;;;14.22;69.18;101630.03;677718;29;1293;-94
2023/09/14 01:00:32;;;;;;;7.10;4.20;;;;;;;14.20;69.27;101629.06;675221;29;1311;-94
2023/09/14 01:00:53;;;;;;;11.90;4.30;;;;;;;14.21;68.98;101628.22;673379;29;1379;-94
2023/09/14 01:01:16;;;;;;;12.85;4.40;;;;;;;14.23;69.13;101634.41;677389;29;1159;-94
2023/09/14 01:01:38;;;;;;;13.23;4.20;;;;;;;14.24;69.08;101638.81;672293;29;1326;-94
2023/09/14 01:01:58;;;;;;;8.02;4.20;;;;;;;14.16;69.35;101629.84;677462;29;1259;-94
2023/09/14 01:02:19;;;;;;;6.45;3.70;;;;;;;14.19;69.31;101629.06;679644;29;1147;-94
2023/09/14 01:02:40;;;;;;;4.88;3.40;;;;;;;14.15;69.08;101625.44;680137;29;1296;-94
2023/09/14 01:03:01;;;;;;;4.35;3.20;;;;;;;14.14;69.21;101626.31;678449;29;1565;-94
2023/09/14 01:03:23;;;;;;;5.32;3.50;;;;;;;14.15;69.26;101622.81;675283;29;1272;-95
2023/09/14 01:03:44;;;;;;;5.43;3.50;;;;;;;14.16;69.24;101624.59;675307;29;1163;-94
2023/09/14 01:04:05;;;;;;;5.75;3.65;;;;;;;14.19;69.21;101635.16;677780;29;1365;-94
2023/09/14 01:04:29;;;;;;;5.68;3.40;;;;;;;14.14;68.85;101635.91;683073;29;1242;-94
2023/09/14 01:04:50;;;;;;;6.60;3.80;;;;;;;14.18;69.33;101640.38;680001;29;1571;-94
2023/09/14 01:05:13;;;;;;;8.10;4.07;;;;;;;14.15;69.19;101638.56;674841;29;1395;-94
2023/09/14 01:05:34;;;;;;;8.13;4.35;;;;;;;14.15;69.11;101630.69;674854;29;1265;-95
2023/09/14 01:05:55;;;;;;;6.95;3.80;;;;;;;14.11;69.19;101631.44;680051;29;1373;-95
2023/09/14 01:06:16;;;;;;;5.85;3.67;;;;;;;14.15;69.26;101628.06;676806;29;1422;-95
2023/09/14 01:06:36;;;;;;;6.90;3.70;;;;;;;14.09;69.09;101626.13;677638;29;1163;-94
2023/09/14 01:06:57;;;;;;;6.85;4.00;;;;;;;14.12;69.39;101627.97;677514;29;1232;-95
2023/09/14 01:07:18;;;;;;;7.13;4.20;;;;;;;14.11;69.29;101626.19;675176;29;1136;-95
2023/09/14 01:07:40;;;;;;;8.07;4.35;;;;;;;14.14;69.15;101633.28;677403;29;1405;-95
2023/09/14 01:08:01;;;;;;;9.75;4.50;;;;;;;14.13;69.47;101635.00;682062;29;1297;-95
2023/09/14 01:08:22;;;;;;;11.20;4.40;;;;;;;14.14;69.26;101626.31;680666;29;1223;-94
2023/09/14 01:08:43;;;;;;;11.13;4.50;;;;;;;14.11;69.17;101626.19;672500;29;1186;-94
2023/09/14 01:09:05;;;;;;;10.02;4.43;;;;;;;14.11;69.23;101631.44;675440;29;1108;-94
2023/09/14 01:09:26;;;;;;;8.73;4.03;;;;;;;14.14;69.19;101636.81;677935;29;1168;-94
2023/09/14 01:09:50;;;;;;;7.78;3.63;;;;;;;14.12;69.25;101638.47;677810;29;1382;-94
2023/09/14 01:10:12;;;;;;;8.80;3.90;;;;;;;14.10;69.17;101634.88;676905;29;1334;-94
2023/09/14 01:10:33;;;;;;;9.25;4.10;;;;;;;14.11;69.25;101629.72;679801;29;1246;-94
2023/09/14 01:10:54;;;;;;;9.40;4.27;;;;;;;14.10;69.31;101634.88;674737;29;1984;-94
2023/09/14 01:11:14;;;;;;;7.63;4.00;;;;;;;14.16;69.24;101648.22;677726;29;1291;-94
2023/09/14 01:11:35;;;;;;;6.55;4.03;;;;;;;14.06;69.31;101628.66;677423;29;1178;-94
2023/09/14 01:11:56;;;;;;;6.13;3.75;;;;;;;14.09;69.17;101647.13;676950;29;1315;-94
2023/09/14 01:12:18;;;;;;;5.30;3.20;;;;;;;14.10;69.08;101634.88;679361;29;1214;-94
2023/09/14 01:12:39;;;;;;;5.78;3.10;;;;;;;14.04;69.16;101632.09;683022;29;1384;-94
2023/09/14 01:13:00;;;;;;;5.88;3.45;;;;;;;14.00;69.35;101622.38;675764;29;1256;-93
2023/09/14 01:13:51;;;;;;;6.10;3.60;;;;;;;14.02;69.38;101632.03;672834;29;1152;-95
2023/09/14 01:14:21;;;;;;;6.47;3.30;;;;;;;14.03;69.17;101633.84;677158;29;1275;-93
2023/09/14 01:15:02;;;;;;;9.20;3.15;;;;;;;14.02;69.26;101631.16;675421;29;1250;-95
2023/09/14 01:15:38;;;;;;;12.75;4.00;;;;;;;13.95;69.10;101628.38;680290;29;1372;-95
2023/09/14 01:16:10;;;;;;;11.25;4.30;;;;;;;14.00;69.39;101632.88;677940;29;1415;-96
2023/09/14 01:16:38;;;;;;;9.82;4.15;;;;;;;13.94;69.21;101623.06;677845;29;1258;-96
2023/09/14 01:17:14;;;;;;;10.93;4.60;;;;;;;14.03;69.38;101643.44;680854;29;1271;-95
2023/09/14 01:17:43;;;;;;;7.22;4.05;;;;;;;14.00;69.21;101639.00;674620;29;1210;-95
2023/09/14 01:18:05;;;;;;;4.70;3.50;;;;;;;14.04;69.52;101645.22;675410;29;1310;-95
2023/09/14 01:19:10;;;;;;;5.47;3.50;;;;;;;13.99;69.37;101639.84;675424;29;1326;-96
2023/09/14 01:19:43;;;;;;;13.57;4.20;;;;;;;14.06;69.65;101646.13;672610;29;1409;-95
2023/09/14 01:20:30;;;;;;;6.00;3.60;;;;;;;14.01;69.20;101639.91;667679;29;1246;-95
2023/09/14 01:21:10;;;;;;;7.30;3.30;;;;;;;14.05;69.34;101647.00;675000;29;1243;-94
2023/09/14 01:21:53;;;;;;;8.27;3.60;;;;;;;14.05;69.44;101644.38;675842;29;1499;-95
2023/09/14 01:22:17;;;;;;;8.23;4.10;;;;;;;14.07;69.47;101645.31;673216;29;1403;-95
2023/09/14 01:23:11;;;;;;;8.13;3.83;;;;;;;14.09;69.59;101643.63;680261;29;1266;-95
2023/09/14 01:23:38;;;;;;;6.50;3.65;;;;;;;14.08;69.43;101637.47;680237;29;1409;-94
2023/09/14 01:24:19;;;;;;;7.63;4.00;;;;;;;13.97;69.33;101613.53;683122;29;1249;-94
2023/09/14 01:25:08;;;;;;;6.60;3.65;;;;;;;14.09;69.32;101638.38;674738;29;1301;-93
2023/09/14 01:25:29;;;;;;;6.18;3.63;;;;;;;14.06;69.46;101638.25;672026;29;1341;-94
2023/09/14 01:25:52;;;;;;;6.70;3.75;;;;;;;13.98;69.32;101615.34;674152;29;1139;-94
2023/09/14 01:26:14;;;;;;;6.60;3.85;;;;;;;13.97;69.48;101624.03;672353;29;1437;-94
2023/09/14 01:26:37;;;;;;;5.15;3.53;;;;;;;14.00;69.56;101625.88;677486;29;1292;-94
2023/09/14 01:26:58;;;;;;;5.00;3.38;;;;;;;14.00;69.40;101627.63;679452;29;1562;-94
2023/09/14 01:27:20;;;;;;;6.13;3.50;;;;;;;14.01;69.26;101640.75;677751;29;1263;-94
2023/09/14 01:27:41;;;;;;;7.85;4.03;;;;;;;14.00;69.38;101638.13;679596;29;1320;-94
2023/09/14 01:28:13;;;;;;;8.00;4.20;;;;;;;14.02;69.50;101636.41;677013;29;1463;-93
2023/09/14 01:28:35;;;;;;;8.88;4.47;;;;;;;14.01;69.66;101629.41;677588;29;1274;-94
2023/09/14 01:28:56;;;;;;;9.50;4.47;;;;;;;13.98;69.46;101628.47;680368;29;1268;-94
2023/09/14 01:29:18;;;;;;;7.47;4.22;;;;;;;14.01;69.60;101634.66;682373;28;1308;-94
2023/09/14 01:29:40;;;;;;;7.18;4.00;;;;;;;14.02;69.63;101628.53;679472;29;1307;-94
2023/09/14 01:30:03;;;;;;;6.35;3.60;;;;;;;14.04;69.54;101635.63;676845;29;1273;-94
2023/09/14 01:30:24;;;;;;;14.95;3.60;;;;;;;14.00;69.54;101627.63;682704;28;937;-94
2023/09/14 01:30:45;;;;;;;15.13;3.63;;;;;;;14.03;69.88;101632.94;676868;29;1915;-93
2023/09/14 01:31:06;;;;;;;16.07;3.93;;;;;;;14.04;69.83;101638.25;676519;29;1166;-94
2023/09/14 01:31:28;;;;;;;7.57;3.70;;;;;;;14.07;69.51;101637.44;674892;29;1320;-94
2023/09/14 01:31:49;;;;;;;7.57;3.65;;;;;;;14.08;69.82;101641.84;676032;29;1221;-94
2023/09/14 01:32:11;;;;;;;6.65;3.70;;;;;;;14.07;69.60;101637.44;677302;29;1388;-94
2023/09/14 01:32:32;;;;;;;7.50;3.88;;;;;;;14.03;69.57;101625.97;674396;29;1316;-94
2023/09/14 01:32:53;;;;;;;7.90;3.90;;;;;;;14.02;69.64;101625.91;676800;29;1278;-93
2023/09/14 01:33:15;;;;;;;7.90;3.90;;;;;;;14.00;69.76;101618.00;677713;29;1390;-94
2023/09/14 01:33:36;;;;;;;6.45;3.50;;;;;;;14.03;69.79;101623.34;680344;29;1202;-93
2023/09/14 01:33:57;;;;;;;7.47;3.72;;;;;;;14.07;69.80;101629.56;675456;29;1262;-94
2023/09/14 01:34:19;;;;;;;10.30;3.95;;;;;;;14.09;69.76;101636.63;677713;29;1377;-94
2023/09/14 01:34:39;;;;;;;10.70;4.13;;;;;;;14.09;69.85;101630.50;677162;29;1168;-93
2023/09/14 01:35:00;;;;;;;14.57;4.25;;;;;;;14.12;69.92;101633.22;680633;29;1277;-93
2023/09/14 01:35:21;;;;;;;11.93;4.10;;;;;;;14.10;69.67;101633.16;677791;29;1182;-94
2023/09/14 01:36:05;;;;;;;8.70;4.07;;;;;;;14.10;69.89;101621.78;677238;29;1345;-94
2023/09/14 01:36:53;;;;;;;10.55;4.18;;;;;;;14.21;69.90;101646.59;677936;29;831;-93
2023/09/14 01:37:15;;;;;;;9.75;4.20;;;;;;;14.14;69.78;101631.56;674551;29;1337;-94
2023/09/14 01:37:36;;;;;;;7.43;4.05;;;;;;;14.18;69.87;101632.50;676894;29;1234;-93
2023/09/14 01:37:58;;;;;;;9.45;4.53;;;;;;;14.21;69.98;101643.97;677722;29;1186;-94
2023/09/14 01:38:20;;;;;;;8.13;4.40;;;;;;;14.13;69.96;101628.88;677357;29;1263;-93
2023/09/14 01:38:42;;;;;;;10.70;4.30;;;;;;;14.24;69.60;101637.91;679604;29;1249;-94
2023/09/14 01:39:04;;;;;;;9.27;4.25;;;;;;;14.24;69.79;101637.91;683280;29;1331;-94
2023/09/14 01:39:27;;;;;;;9.02;4.32;;;;;;;14.28;69.80;101649.38;683094;29;1308;-93
2023/09/14 01:39:49;;;;;;;6.45;4.35;;;;;;;14.29;69.96;101635.41;679806;29;1472;-93
2023/09/14 01:40:10;;;;;;;7.17;4.40;;;;;;;14.30;69.65;101645.06;682590;29;1239;-94
2023/09/14 01:40:34;;;;;;;8.52;4.18;;;;;;;14.23;69.94;101629.16;677607;29;1604;-94
2023/09/14 01:40:56;;;;;;;8.77;4.05;;;;;;;14.27;69.76;101637.13;676572;29;1219;-94
2023/09/14 01:41:18;;;;;;;9.10;4.18;;;;;;;14.31;69.85;101644.25;680205;29;1400;-93
2023/09/14 01:41:40;;;;;;;8.32;4.20;;;;;;;14.30;69.80;101635.47;674839;29;1197;-94
2023/09/14 01:42:02;;;;;;;8.80;4.28;;;;;;;14.35;69.79;101646.09;675090;29;1257;-94
2023/09/14 01:42:24;;;;;;;9.90;4.30;;;;;;;14.30;70.00;101631.94;682831;28;1395;-93
2023/09/14 01:42:45;;;;;;;9.38;4.40;;;;;;;14.31;69.82;101634.59;677379;29;1173;-94
2023/09/14 01:43:07;;;;;;;10.52;4.68;;;;;;;14.36;69.65;101642.59;677637;29;1349;-94
2023/09/14 01:43:29;;;;;;;10.23;4.60;;;;;;;14.41;69.71;101648.88;680307;29;1376;-94
2023/09/14 01:43:55;;;;;;;9.18;4.13;;;;;;;14.42;69.86;101653.28;679237;29;1311;-94
2023/09/14 01:44:16;;;;;;;8.98;4.05;;;;;;;14.34;69.66;101639.06;685526;28;1346;-94
2023/09/14 01:44:37;;;;;;;9.48;4.28;;;;;;;14.31;69.85;101634.59;682279;29;1201;-94
2023/09/14 01:44:58;;;;;;;8.90;4.20;;;;;;;14.39;69.64;101650.59;675308;29;1235;-94
2023/09/14 01:45:20;;;;;;;8.30;4.18;;;;;;;14.33;69.70;101638.16;680020;29;1226;-92
2023/09/14 01:45:42;;;;;;;7.63;4.05;;;;;;;14.38;69.87;101652.31;674721;29;1307;-94
2023/09/14 01:46:04;;;;;;;6.85;3.78;;;;;;;14.33;69.70;101638.16;680034;29;1277;-93
2023/09/14 01:46:25;;;;;;;6.07;3.60;;;;;;;14.36;69.80;101643.50;677931;29;1328;-94
2023/09/14 01:46:47;;;;;;;5.47;3.60;;;;;;;14.30;69.67;101631.94;677575;29;1242;-94
2023/09/14 01:47:08;;;;;;;6.55;4.07;;;;;;;14.40;69.92;101649.72;672720;29;1335;-94
2023/09/14 01:47:28;;;;;;;8.05;4.22;;;;;;;14.40;69.67;101654.97;677604;29;1230;-93
2023/09/14 01:47:52;;;;;;;8.05;4.03;;;;;;;14.34;69.91;101645.22;682337;29;1232;-94
2023/09/14 01:48:18;;;;;;;8.63;3.85;;;;;;;14.38;69.99;101651.44;677710;29;1295;-94
2023/09/14 01:48:39;;;;;;;7.13;3.75;;;;;;;14.32;69.89;101636.38;677444;29;1349;-94